AUA25 LOWW-RJAA
Flight info
| Callsign | AUA25 |
|---|---|
| Flight time | N/A |
| Altitude | 35000 |
| Route | ADAMA Z648 VEDER L140 ALAMU DCT EPARI DCT LUVEL DCT LEVTA DCT UDROS UM859 KARDE UN644 ROLIN N644 TETRO DCT BARAD M747 SUBUT T916 LEYLA N161 GASBI/K0885F350 N161 ARLIF/K0882F370 N161 SARIN/K0882S1130 A368 FKG W188 ADPET/K0876S1190 W188 GOVSA W66 DKO W69 HUR B339 LADIX W34 VAPGU W100 ORAVA W201 UNSEK A326 DOBGA/K0889S1250 A326 DONVO G597 AGAVO/N0484F410 Y644 EGOBA Y697 LANAT Y51 SAMON Y517 ESKAS Y303 ENTAK Y30 SWAMP |
| Aircraft | B772/H-SDE2E3FGHIJ5LORVWXY/LB1D1 |
Departure
| Time | 2026-04-23 21:05 |
|---|---|
| Airport | Vienna International Airport (LOWW) |
Arrival
| Time | N/A |
|---|---|
| Airport | Narita International Airport (RJAA) |
| Time | Latitude | Longitude | Altitude | Speed | Heading |
|---|---|---|---|---|---|
| 2026-04-23 20:36 | 48.11672 | 16.56925 | 620 ft | 0 kts | 26° |
| 2026-04-23 20:48 | 48.11669 | 16.56923 | 608 ft | 3 kts | 27° |
| 2026-04-23 20:48 | 48.11647 | 16.56902 | 624 ft | 4 kts | 41° |
| 2026-04-23 20:48 | 48.11629 | 16.56872 | 624 ft | 4 kts | 61° |
| 2026-04-23 20:49 | 48.11620 | 16.56836 | 624 ft | 4 kts | 84° |
| 2026-04-23 20:49 | 48.11621 | 16.56796 | 624 ft | 4 kts | 105° |
| 2026-04-23 20:49 | 48.11628 | 16.56768 | 623 ft | 0 kts | 116° |
| 2026-04-23 20:53 | 48.11626 | 16.56774 | 607 ft | 6 kts | 114° |
| 2026-04-23 20:54 | 48.11592 | 16.56879 | 616 ft | 7 kts | 117° |
| 2026-04-23 20:54 | 48.11553 | 16.56913 | 620 ft | 7 kts | 172° |
| 2026-04-23 20:54 | 48.11506 | 16.56897 | 621 ft | 7 kts | 198° |
| 2026-04-23 20:54 | 48.11459 | 16.56882 | 619 ft | 7 kts | 178° |
| 2026-04-23 20:55 | 48.11420 | 16.56922 | 619 ft | 7 kts | 127° |
| 2026-04-23 20:55 | 48.11396 | 16.56986 | 624 ft | 7 kts | 117° |
| 2026-04-23 20:55 | 48.11373 | 16.57051 | 625 ft | 7 kts | 116° |
| 2026-04-23 20:55 | 48.11352 | 16.57117 | 623 ft | 7 kts | 116° |
| 2026-04-23 20:56 | 48.11331 | 16.57183 | 625 ft | 7 kts | 116° |
| 2026-04-23 20:56 | 48.11310 | 16.57249 | 622 ft | 7 kts | 116° |
| 2026-04-23 20:56 | 48.11288 | 16.57315 | 619 ft | 7 kts | 115° |
| 2026-04-23 20:56 | 48.11259 | 16.57406 | 624 ft | 13 kts | 115° |
| 2026-04-23 20:57 | 48.11212 | 16.57549 | 618 ft | 18 kts | 116° |
| 2026-04-23 20:57 | 48.11152 | 16.57718 | 627 ft | 20 kts | 129° |
| 2026-04-23 20:57 | 48.11016 | 16.57804 | 622 ft | 23 kts | 164° |
| 2026-04-23 20:57 | 48.10885 | 16.57861 | 621 ft | 11 kts | 164° |
| 2026-04-23 20:58 | 48.10808 | 16.57894 | 625 ft | 11 kts | 164° |
| 2026-04-23 20:58 | 48.10731 | 16.57926 | 626 ft | 11 kts | 164° |
| 2026-04-23 20:58 | 48.10655 | 16.57958 | 626 ft | 11 kts | 164° |
| 2026-04-23 20:58 | 48.10580 | 16.57990 | 627 ft | 11 kts | 164° |
| 2026-04-23 20:59 | 48.10506 | 16.58021 | 628 ft | 11 kts | 163° |
| 2026-04-23 20:59 | 48.10429 | 16.58055 | 624 ft | 11 kts | 165° |
| 2026-04-23 20:59 | 48.10351 | 16.58087 | 628 ft | 13 kts | 163° |
| 2026-04-23 20:59 | 48.10256 | 16.58127 | 627 ft | 15 kts | 165° |
| 2026-04-23 21:00 | 48.10155 | 16.58171 | 628 ft | 15 kts | 163° |
| 2026-04-23 21:00 | 48.10049 | 16.58215 | 625 ft | 17 kts | 164° |
| 2026-04-23 21:00 | 48.09933 | 16.58264 | 631 ft | 17 kts | 164° |
| 2026-04-23 21:00 | 48.09818 | 16.58313 | 628 ft | 18 kts | 164° |
| 2026-04-23 21:01 | 48.09694 | 16.58365 | 630 ft | 19 kts | 163° |
| 2026-04-23 21:01 | 48.09561 | 16.58422 | 626 ft | 22 kts | 164° |
| 2026-04-23 21:01 | 48.09405 | 16.58487 | 625 ft | 24 kts | 164° |
| 2026-04-23 21:01 | 48.09299 | 16.58532 | 622 ft | 24 kts | 164° |
| 2026-04-23 21:02 | 48.09139 | 16.58600 | 622 ft | 24 kts | 164° |
| 2026-04-23 21:02 | 48.08944 | 16.58681 | 618 ft | 17 kts | 164° |
| 2026-04-23 21:02 | 48.08836 | 16.58749 | 626 ft | 17 kts | 145° |
| 2026-04-23 21:02 | 48.08805 | 16.58814 | 624 ft | 0 kts | 116° |
| 2026-04-23 21:03 | 48.08803 | 16.58819 | 628 ft | 3 kts | 116° |
| 2026-04-23 21:03 | 48.08791 | 16.58882 | 618 ft | 9 kts | 96° |
| 2026-04-23 21:03 | 48.08810 | 16.59001 | 625 ft | 15 kts | 61° |
| 2026-04-23 21:03 | 48.08896 | 16.59099 | 623 ft | 17 kts | 15° |
| 2026-04-23 21:04 | 48.08951 | 16.59096 | 625 ft | 0 kts | 346° |
| 2026-04-23 21:04 | 48.08952 | 16.59096 | 625 ft | 3 kts | 346° |
| 2026-04-23 21:04 | 48.09125 | 16.59028 | 625 ft | 62 kts | 345° |
| 2026-04-23 21:04 | 48.09799 | 16.58737 | 623 ft | 137 kts | 344° |
| 2026-04-23 21:05 | 48.10902 | 16.58275 | 806 ft | 179 kts | 343° |
| 2026-04-23 21:05 | 48.12115 | 16.57765 | 1769 ft | 180 kts | 343° |
| 2026-04-23 21:05 | 48.13335 | 16.57378 | 2746 ft | 184 kts | 359° |
| 2026-04-23 21:05 | 48.14633 | 16.58093 | 2765 ft | 224 kts | 38° |
| 2026-04-23 21:06 | 48.15407 | 16.60279 | 3074 ft | 257 kts | 76° |
| 2026-04-23 21:06 | 48.15462 | 16.63021 | 3493 ft | 266 kts | 80° |
| 2026-04-23 21:06 | 48.15658 | 16.65751 | 4076 ft | 268 kts | 73° |
| 2026-04-23 21:06 | 48.16006 | 16.68478 | 4860 ft | 265 kts | 71° |
| 2026-04-23 21:07 | 48.16396 | 16.71190 | 5485 ft | 269 kts | 75° |
| 2026-04-23 21:07 | 48.16287 | 16.74061 | 5909 ft | 291 kts | 107° |
| 2026-04-23 21:07 | 48.15135 | 16.76575 | 6530 ft | 298 kts | 136° |
| 2026-04-23 21:07 | 48.13688 | 16.78781 | 6971 ft | 297 kts | 118° |
| 2026-04-23 21:08 | 48.13030 | 16.81657 | 7412 ft | 289 kts | 94° |
| 2026-04-23 21:08 | 48.12613 | 16.84621 | 7927 ft | 296 kts | 102° |
| 2026-04-23 21:08 | 48.11966 | 16.87560 | 8558 ft | 297 kts | 109° |
| 2026-04-23 21:08 | 48.10799 | 16.90144 | 9038 ft | 306 kts | 135° |
| 2026-04-23 21:09 | 48.09206 | 16.92228 | 9488 ft | 311 kts | 136° |
| 2026-04-23 21:09 | 48.07598 | 16.94417 | 10107 ft | 313 kts | 134° |
| 2026-04-23 21:09 | 48.05987 | 16.96693 | 10459 ft | 326 kts | 133° |
| 2026-04-23 21:09 | 48.04297 | 16.99112 | 10605 ft | 345 kts | 133° |
| 2026-04-23 21:10 | 48.02520 | 17.01683 | 10740 ft | 361 kts | 130° |
| 2026-04-23 21:10 | 48.01137 | 17.04830 | 10827 ft | 369 kts | 105° |
| 2026-04-23 21:10 | 48.00677 | 17.08538 | 11068 ft | 371 kts | 90° |
| 2026-04-23 21:10 | 48.00446 | 17.12438 | 11496 ft | 382 kts | 92° |
| 2026-04-23 21:11 | 48.00159 | 17.16402 | 12195 ft | 385 kts | 92° |
| 2026-04-23 21:11 | 47.99856 | 17.20369 | 12990 ft | 385 kts | 92° |
| 2026-04-23 21:11 | 47.99551 | 17.24355 | 13719 ft | 388 kts | 92° |
| 2026-04-23 21:11 | 47.99242 | 17.28389 | 14265 ft | 394 kts | 92° |
| 2026-04-23 21:12 | 47.98927 | 17.32473 | 14838 ft | 397 kts | 92° |
| 2026-04-23 21:12 | 47.98470 | 17.36553 | 15414 ft | 402 kts | 100° |
| 2026-04-23 21:12 | 47.97670 | 17.40577 | 15975 ft | 407 kts | 104° |
| 2026-04-23 21:12 | 47.96725 | 17.44580 | 16560 ft | 410 kts | 105° |
| 2026-04-23 21:13 | 47.95753 | 17.48589 | 17163 ft | 411 kts | 105° |
| 2026-04-23 21:13 | 47.94796 | 17.52616 | 17760 ft | 413 kts | 105° |
| 2026-04-23 21:13 | 47.93857 | 17.56681 | 18303 ft | 415 kts | 104° |
| 2026-04-23 21:13 | 47.92931 | 17.60778 | 18755 ft | 418 kts | 104° |
| 2026-04-23 21:14 | 47.92012 | 17.64903 | 19192 ft | 421 kts | 104° |
| 2026-04-23 21:14 | 47.91088 | 17.69069 | 19575 ft | 425 kts | 104° |
| 2026-04-23 21:14 | 47.90156 | 17.73269 | 20026 ft | 427 kts | 104° |
| 2026-04-23 21:14 | 47.89219 | 17.77478 | 20491 ft | 429 kts | 104° |
| 2026-04-23 21:15 | 47.88276 | 17.81706 | 20951 ft | 430 kts | 104° |
| 2026-04-23 21:15 | 47.87340 | 17.85893 | 21371 ft | 433 kts | 104° |
| 2026-04-23 21:15 | 47.86385 | 17.90162 | 21792 ft | 435 kts | 104° |
| 2026-04-23 21:15 | 47.85422 | 17.94447 | 22210 ft | 437 kts | 104° |
| 2026-04-23 21:16 | 47.84426 | 17.98741 | 22628 ft | 441 kts | 106° |
| 2026-04-23 21:16 | 47.83196 | 18.02951 | 23051 ft | 445 kts | 110° |
| 2026-04-23 21:16 | 47.81856 | 18.07136 | 23387 ft | 450 kts | 111° |
| 2026-04-23 21:16 | 47.80501 | 18.11357 | 23748 ft | 452 kts | 111° |
| 2026-04-23 21:17 | 47.79154 | 18.15596 | 24107 ft | 454 kts | 110° |
| 2026-04-23 21:17 | 47.77824 | 18.19834 | 24461 ft | 455 kts | 110° |
| 2026-04-23 21:17 | 47.76485 | 18.24118 | 24805 ft | 457 kts | 110° |
| 2026-04-23 21:17 | 47.75163 | 18.28415 | 25136 ft | 457 kts | 108° |
| 2026-04-23 21:18 | 47.74106 | 18.32864 | 25443 ft | 455 kts | 101° |
| 2026-04-23 21:18 | 47.73366 | 18.37361 | 25750 ft | 453 kts | 96° |
| 2026-04-23 21:18 | 47.72928 | 18.41988 | 26093 ft | 452 kts | 91° |
| 2026-04-23 21:18 | 47.72601 | 18.46652 | 26395 ft | 454 kts | 91° |
| 2026-04-23 21:19 | 47.72265 | 18.51334 | 26702 ft | 457 kts | 91° |
| 2026-04-23 21:19 | 47.71915 | 18.56041 | 27047 ft | 458 kts | 91° |
| 2026-04-23 21:19 | 47.71555 | 18.60757 | 27367 ft | 460 kts | 91° |
| 2026-04-23 21:19 | 47.71187 | 18.65487 | 27673 ft | 461 kts | 91° |
| 2026-04-23 21:20 | 47.70814 | 18.70221 | 27964 ft | 463 kts | 91° |
| 2026-04-23 21:20 | 47.70436 | 18.74986 | 28252 ft | 466 kts | 91° |
| 2026-04-23 21:20 | 47.70055 | 18.79775 | 28530 ft | 468 kts | 91° |
| 2026-04-23 21:20 | 47.69671 | 18.84570 | 28791 ft | 470 kts | 91° |
| 2026-04-23 21:21 | 47.69283 | 18.89399 | 29036 ft | 472 kts | 91° |
| 2026-04-23 21:21 | 47.68734 | 18.94169 | 29256 ft | 479 kts | 98° |
| 2026-04-23 21:21 | 47.67772 | 18.98935 | 29473 ft | 485 kts | 104° |
| 2026-04-23 21:21 | 47.66490 | 19.03600 | 29691 ft | 492 kts | 110° |
| 2026-04-23 21:22 | 47.64866 | 19.08107 | 29884 ft | 497 kts | 114° |
| 2026-04-23 21:22 | 47.63160 | 19.12570 | 30113 ft | 498 kts | 114° |
| 2026-04-23 21:22 | 47.61443 | 19.17035 | 30391 ft | 496 kts | 114° |
| 2026-04-23 21:22 | 47.59744 | 19.21464 | 30731 ft | 494 kts | 113° |
| 2026-04-23 21:23 | 47.58058 | 19.25885 | 31058 ft | 492 kts | 113° |
| 2026-04-23 21:23 | 47.56372 | 19.30323 | 31330 ft | 491 kts | 113° |
| 2026-04-23 21:23 | 47.54701 | 19.34736 | 31584 ft | 491 kts | 113° |
| 2026-04-23 21:23 | 47.53052 | 19.39096 | 31852 ft | 490 kts | 113° |
| 2026-04-23 21:24 | 47.51386 | 19.43498 | 32126 ft | 489 kts | 112° |
| 2026-04-23 21:24 | 47.49723 | 19.47884 | 32401 ft | 489 kts | 112° |
| 2026-04-23 21:24 | 47.48064 | 19.52253 | 32670 ft | 488 kts | 112° |
| 2026-04-23 21:24 | 47.46398 | 19.56630 | 32935 ft | 488 kts | 112° |
| 2026-04-23 21:25 | 47.44732 | 19.61000 | 33148 ft | 488 kts | 112° |
| 2026-04-23 21:25 | 47.43062 | 19.65372 | 33387 ft | 488 kts | 112° |
| 2026-04-23 21:25 | 47.41391 | 19.69737 | 33654 ft | 487 kts | 112° |
| 2026-04-23 21:25 | 47.39724 | 19.74083 | 33922 ft | 486 kts | 112° |
| 2026-04-23 21:26 | 47.38059 | 19.78420 | 34155 ft | 485 kts | 112° |
| 2026-04-23 21:26 | 47.36395 | 19.82748 | 34339 ft | 485 kts | 112° |
| 2026-04-23 21:26 | 47.34727 | 19.87080 | 34516 ft | 485 kts | 112° |
| 2026-04-23 21:26 | 47.33076 | 19.91359 | 34697 ft | 486 kts | 112° |
| 2026-04-23 21:27 | 47.31402 | 19.95693 | 34857 ft | 486 kts | 113° |
| 2026-04-23 21:27 | 47.29724 | 20.00032 | 34933 ft | 488 kts | 113° |
| 2026-04-23 21:27 | 47.26350 | 20.08730 | 35010 ft | 488 kts | 113° |
| 2026-04-23 21:28 | 47.22981 | 20.17376 | 35000 ft | 484 kts | 113° |
| 2026-04-23 21:28 | 47.19634 | 20.25945 | 35005 ft | 482 kts | 113° |
| 2026-04-23 21:29 | 47.16315 | 20.34422 | 34992 ft | 481 kts | 113° |
| 2026-04-23 21:29 | 47.13053 | 20.42726 | 34999 ft | 481 kts | 113° |